createdAt,value
2022-08-20T00:02:16.757Z,8.20
2022-08-20T00:04:45.298Z,8.40
2022-08-20T00:07:14.547Z,9.20
2022-08-20T00:09:43.715Z,9.50
2022-08-20T00:12:16.366Z,8.60
2022-08-20T00:14:44.552Z,9.30
2022-08-20T00:17:12.706Z,8.90
2022-08-20T00:19:40.897Z,8.90
2022-08-20T00:22:09.308Z,8.60
2022-08-20T00:24:37.791Z,9.30
2022-08-20T00:27:06.129Z,8.80
2022-08-20T00:29:34.622Z,8.90
2022-08-20T00:32:03.297Z,9.10
2022-08-20T00:34:31.581Z,8.90
2022-08-20T00:36:59.772Z,8.70
2022-08-20T00:39:28.360Z,8.80
2022-08-20T00:41:56.499Z,9.80
2022-08-20T00:44:24.950Z,9.60
2022-08-20T00:46:53.788Z,9.40
2022-08-20T00:49:28.324Z,9.60
2022-08-20T00:51:59.311Z,10.20
2022-08-20T00:54:34.926Z,9.10
2022-08-20T00:57:10.725Z,9.10
2022-08-20T00:59:42.163Z,9.20
2022-08-20T01:02:14.730Z,9.10
2022-08-20T01:04:55.610Z,9.10
2022-08-20T01:07:35.231Z,9.30
2022-08-20T01:10:11.845Z,9.40
2022-08-20T01:12:43.436Z,9.50
2022-08-20T01:15:15.657Z,10.10
2022-08-20T01:20:22.872Z,9.70
2022-08-20T01:23:26.722Z,9.20
2022-08-20T01:26:23.399Z,10.70
2022-08-20T01:29:14.964Z,10.10
2022-08-20T01:31:43.751Z,10.30
2022-08-20T01:34:15.586Z,10.70
2022-08-20T01:36:48.568Z,11.10
2022-08-20T01:39:24.606Z,10.20
2022-08-20T01:41:58.187Z,10.60
2022-08-20T01:44:27.357Z,10.70
2022-08-20T01:46:57.504Z,10.60
2022-08-20T01:49:30.124Z,9.90
2022-08-20T01:52:01.410Z,11.10
2022-08-20T01:54:29.541Z,11.20
2022-08-20T01:57:12.474Z,10.60
2022-08-20T01:59:41.258Z,10.70
2022-08-20T02:02:12.946Z,10.50
2022-08-20T02:04:42.011Z,11.50
2022-08-20T02:07:16.421Z,11.70
2022-08-20T02:09:45.663Z,12.90
2022-08-20T02:12:17.598Z,10.80
2022-08-20T02:14:51.676Z,12.10
2022-08-20T02:17:23.287Z,10.90
2022-08-20T02:19:57.779Z,12.70
2022-08-20T02:22:50.468Z,11.20
2022-08-20T02:25:23.144Z,11.20
2022-08-20T02:27:53.977Z,11.10
2022-08-20T02:30:28.680Z,11.50
2022-08-20T02:32:58.736Z,11.80
2022-08-20T02:35:28.066Z,11.10
2022-08-20T02:37:56.656Z,11.20
2022-08-20T02:40:31.252Z,10.60
2022-08-20T02:43:00.958Z,13.10
2022-08-20T02:45:31.931Z,12.30
2022-08-20T02:48:00.102Z,13.30
2022-08-20T02:50:28.633Z,13.40
2022-08-20T02:52:57.121Z,13.40
2022-08-20T02:55:28.027Z,13.00
2022-08-20T02:57:59.219Z,13.60
2022-08-20T03:00:38.107Z,14.00
2022-08-20T03:03:09.041Z,13.40
2022-08-20T03:05:42.070Z,13.00
2022-08-20T03:08:12.556Z,13.40
2022-08-20T03:10:43.745Z,13.10
2022-08-20T03:13:13.592Z,12.00
2022-08-20T03:15:44.999Z,12.80
2022-08-20T03:18:14.754Z,12.00
2022-08-20T03:20:46.004Z,12.30
2022-08-20T03:23:15.050Z,12.40
2022-08-20T03:25:44.099Z,12.70
2022-08-20T03:28:13.823Z,12.80
2022-08-20T03:30:42.803Z,12.50
2022-08-20T03:33:11.067Z,12.20
2022-08-20T03:35:39.919Z,12.60
2022-08-20T03:38:10.938Z,12.00
2022-08-20T03:40:39.275Z,13.00
2022-08-20T03:43:11.649Z,12.20
2022-08-20T03:48:11.497Z,12.40
2022-08-20T03:50:42.679Z,12.30
2022-08-20T03:53:14.768Z,13.10
2022-08-20T03:58:29.872Z,13.20
2022-08-20T04:01:06.807Z,11.60
2022-08-20T04:03:35.655Z,14.50
2022-08-20T04:06:04.551Z,12.30
2022-08-20T04:08:33.588Z,11.40
2022-08-20T04:11:02.220Z,12.10
2022-08-20T04:13:31.506Z,12.30
2022-08-20T04:16:04.122Z,11.80
2022-08-20T04:18:33.263Z,11.20
2022-08-20T04:21:01.622Z,11.10
2022-08-20T04:23:31.353Z,11.50
2022-08-20T04:26:00.887Z,11.20
2022-08-20T04:28:29.071Z,12.10
2022-08-20T04:31:01.128Z,11.80
2022-08-20T04:33:35.167Z,11.60
2022-08-20T04:36:06.511Z,12.30
2022-08-20T04:38:49.622Z,11.70
2022-08-20T04:41:24.389Z,11.40
2022-08-20T04:43:54.531Z,11.10
2022-08-20T04:46:28.170Z,10.10
2022-08-20T04:48:57.830Z,11.00
2022-08-20T04:51:26.894Z,10.40
2022-08-20T04:53:57.532Z,10.30
2022-08-20T04:56:29.550Z,10.00
2022-08-20T05:01:28.013Z,10.00
2022-08-20T05:03:57.973Z,10.10
2022-08-20T05:06:31.024Z,12.00
2022-08-20T05:09:00.753Z,9.90
2022-08-20T05:11:35.813Z,9.50
2022-08-20T05:14:09.226Z,9.50
2022-08-20T05:16:39.515Z,8.60
2022-08-20T05:19:11.486Z,9.10
2022-08-20T05:21:41.245Z,9.70
2022-08-20T05:24:12.346Z,8.70
2022-08-20T05:26:40.915Z,9.40
2022-08-20T05:29:09.119Z,9.30
2022-08-20T05:31:38.743Z,8.70
2022-08-20T05:34:10.966Z,9.20
2022-08-20T05:36:46.878Z,8.60
2022-08-20T05:39:20.744Z,10.00
2022-08-20T05:41:51.504Z,9.00
2022-08-20T05:44:20.033Z,9.20
2022-08-20T05:46:48.640Z,9.10
2022-08-20T05:49:21.444Z,9.20
2022-08-20T05:51:51.715Z,9.60
2022-08-20T05:54:21.460Z,9.30
2022-08-20T05:56:50.838Z,8.60
2022-08-20T05:59:23.535Z,8.70
2022-08-20T06:01:53.140Z,8.10
2022-08-20T06:04:32.253Z,8.40
2022-08-20T06:07:07.419Z,7.90
2022-08-20T06:09:36.517Z,8.30
2022-08-20T06:12:09.131Z,8.80
2022-08-20T06:14:37.511Z,8.50
2022-08-20T06:17:09.205Z,8.00
2022-08-20T06:19:40.038Z,8.70
2022-08-20T06:22:20.466Z,8.80
2022-08-20T06:24:55.674Z,7.80
2022-08-20T06:27:24.846Z,8.20
2022-08-20T06:29:54.037Z,8.70
2022-08-20T06:32:31.795Z,8.10
2022-08-20T06:35:03.638Z,8.30
2022-08-20T06:37:33.932Z,8.10
2022-08-20T06:40:14.710Z,8.20
2022-08-20T06:42:48.133Z,8.40
2022-08-20T06:45:26.495Z,8.40
2022-08-20T06:47:58.157Z,8.10
2022-08-20T06:50:32.856Z,8.10
2022-08-20T06:53:01.033Z,9.60
2022-08-20T06:55:30.124Z,8.60
2022-08-20T06:58:00.619Z,8.70
2022-08-20T07:00:31.974Z,8.30
2022-08-20T07:03:01.758Z,8.10
2022-08-20T07:05:32.615Z,8.10
2022-08-20T07:08:01.750Z,7.70
2022-08-20T07:10:30.688Z,7.90
2022-08-20T07:13:00.366Z,8.10
2022-08-20T07:15:30.445Z,7.50
2022-08-20T07:18:01.939Z,7.30
2022-08-20T07:20:32.887Z,6.40
2022-08-20T07:23:01.507Z,7.00
2022-08-20T07:25:33.829Z,6.40
2022-08-20T07:28:08.634Z,7.40
2022-08-20T07:30:55.978Z,6.40
2022-08-20T07:33:28.420Z,6.20
2022-08-20T07:35:59.077Z,7.30
2022-08-20T07:38:30.426Z,5.90
2022-08-20T07:41:03.658Z,5.40
2022-08-20T07:43:33.184Z,5.30
2022-08-20T07:46:08.599Z,5.30
2022-08-20T07:48:42.278Z,5.20
2022-08-20T07:51:11.160Z,5.60
2022-08-20T07:53:40.828Z,6.10
2022-08-20T07:56:12.808Z,5.40
2022-08-20T07:58:49.949Z,5.30
2022-08-20T08:01:21.358Z,5.40
2022-08-20T08:03:51.731Z,5.60
2022-08-20T08:06:28.523Z,5.70
2022-08-20T08:09:07.321Z,6.00
2022-08-20T08:11:38.300Z,5.60
2022-08-20T08:14:09.833Z,5.30
2022-08-20T08:16:39.454Z,5.70
2022-08-20T08:19:12.303Z,5.50
2022-08-20T08:21:41.694Z,4.40
2022-08-20T08:24:14.335Z,4.80
2022-08-20T08:26:45.293Z,5.00
2022-08-20T08:29:13.826Z,4.40
2022-08-20T08:31:42.697Z,4.90
2022-08-20T08:34:11.750Z,4.80
2022-08-20T08:36:40.688Z,4.50
2022-08-20T08:39:08.955Z,4.50
2022-08-20T08:41:40.215Z,4.70
2022-08-20T08:44:24.258Z,4.90
2022-08-20T08:47:01.683Z,4.90
2022-08-20T08:49:37.651Z,5.00
2022-08-20T08:52:14.991Z,5.50
2022-08-20T08:54:49.144Z,4.60
2022-08-20T08:57:17.595Z,5.10
2022-08-20T09:00:03.957Z,4.70
2022-08-20T09:02:36.466Z,4.30
2022-08-20T09:05:17.052Z,4.70
2022-08-20T09:07:51.314Z,4.90
2022-08-20T09:10:23.329Z,4.60
2022-08-20T09:12:52.575Z,4.50
2022-08-20T09:15:21.782Z,5.20
2022-08-20T09:17:50.323Z,4.70
2022-08-20T09:20:18.895Z,4.70
2022-08-20T09:22:47.170Z,5.20
2022-08-20T09:25:17.380Z,4.90
2022-08-20T09:27:46.174Z,5.10
2022-08-20T09:30:18.483Z,4.70
2022-08-20T09:32:47.103Z,5.00
2022-08-20T09:35:16.153Z,5.00
2022-08-20T09:37:44.387Z,4.60
2022-08-20T09:40:14.200Z,4.80
2022-08-20T09:42:50.622Z,4.90
2022-08-20T09:45:19.378Z,4.80
2022-08-20T09:47:54.836Z,4.40
2022-08-20T09:50:28.053Z,4.70
2022-08-20T09:52:59.491Z,4.00
2022-08-20T09:55:44.571Z,4.30
2022-08-20T09:58:31.243Z,4.40
2022-08-20T10:01:04.351Z,4.10
2022-08-20T10:03:32.599Z,4.20
2022-08-20T10:06:00.770Z,4.20
2022-08-20T10:08:29.402Z,3.90
2022-08-20T10:10:57.758Z,4.40
2022-08-20T10:13:26.062Z,3.80
2022-08-20T10:15:54.212Z,4.00
2022-08-20T10:18:22.397Z,4.00
2022-08-20T10:20:50.492Z,3.80
2022-08-20T10:23:18.675Z,3.60
2022-08-20T10:25:46.799Z,3.30
2022-08-20T10:28:14.970Z,3.10
2022-08-20T10:30:45.316Z,3.40
2022-08-20T10:33:13.391Z,4.10
2022-08-20T10:35:41.702Z,3.30
2022-08-20T10:38:10.272Z,3.30
2022-08-20T10:40:38.391Z,3.90
2022-08-20T10:43:06.620Z,3.30
2022-08-20T10:45:34.717Z,3.40
2022-08-20T10:48:04.706Z,3.30
2022-08-20T10:50:32.843Z,3.70
2022-08-20T10:53:00.926Z,3.20
2022-08-20T10:55:29.160Z,3.20
2022-08-20T10:57:57.891Z,3.40
2022-08-20T11:00:27.002Z,3.40
2022-08-20T11:02:55.553Z,3.00
2022-08-20T11:05:24.005Z,3.30
2022-08-20T11:07:56.140Z,3.30
2022-08-20T11:10:27.558Z,3.40
2022-08-20T11:12:55.852Z,2.80
2022-08-20T11:15:24.776Z,2.90
2022-08-20T11:17:53.691Z,2.90
2022-08-20T11:20:25.296Z,3.10
2022-08-20T11:22:54.719Z,3.30
2022-08-20T11:25:22.864Z,3.20
2022-08-20T11:27:52.650Z,3.40
2022-08-20T11:30:28.450Z,3.60
2022-08-20T11:32:58.844Z,3.10
2022-08-20T11:35:48.996Z,3.60
2022-08-20T11:38:19.608Z,4.10
2022-08-20T11:40:47.943Z,3.10
2022-08-20T11:43:17.475Z,3.20
2022-08-20T11:45:50.533Z,3.40
2022-08-20T11:48:19.147Z,3.20
2022-08-20T11:50:48.537Z,3.30
2022-08-20T11:53:17.098Z,3.40
2022-08-20T11:55:46.319Z,3.40
2022-08-20T11:58:16.101Z,3.20
2022-08-20T12:00:44.339Z,3.30
2022-08-20T12:03:13.152Z,3.50
2022-08-20T12:05:44.337Z,3.60
2022-08-20T12:08:27.319Z,4.50
2022-08-20T12:11:01.616Z,3.50
2022-08-20T12:13:47.405Z,3.50
2022-08-20T12:16:20.368Z,3.20
2022-08-20T12:18:49.071Z,3.10
2022-08-20T12:21:17.871Z,3.30
2022-08-20T12:23:46.324Z,3.10
2022-08-20T12:26:16.881Z,3.20
2022-08-20T12:28:45.008Z,3.10
2022-08-20T12:31:13.244Z,3.70
2022-08-20T12:33:41.551Z,3.90
2022-08-20T12:36:09.826Z,3.40
2022-08-20T12:38:37.974Z,3.70
2022-08-20T12:41:06.943Z,3.50
2022-08-20T12:43:35.166Z,4.40
2022-08-20T12:46:03.352Z,3.40
2022-08-20T12:48:31.492Z,3.50
2022-08-20T12:50:59.755Z,3.20
2022-08-20T12:53:29.447Z,3.80
2022-08-20T12:55:57.580Z,3.50
2022-08-20T12:58:25.757Z,3.70
2022-08-20T13:00:54.089Z,3.80
2022-08-20T13:03:22.249Z,3.70
2022-08-20T13:05:50.791Z,4.20
2022-08-20T13:08:19.700Z,4.20
2022-08-20T13:10:48.393Z,3.80
2022-08-20T13:13:20.998Z,4.20
2022-08-20T13:15:51.325Z,4.10
2022-08-20T13:18:20.899Z,4.20
2022-08-20T13:20:49.168Z,4.50
2022-08-20T13:23:17.763Z,3.90
2022-08-20T13:25:46.094Z,4.00
2022-08-20T13:28:14.215Z,4.40
2022-08-20T13:30:42.457Z,4.70
2022-08-20T13:33:10.636Z,5.00
2022-08-20T13:35:38.907Z,4.80
2022-08-20T13:38:07.115Z,4.80
2022-08-20T13:40:35.863Z,5.80
2022-08-20T13:43:07.113Z,4.70
2022-08-20T13:45:39.954Z,5.90
2022-08-20T13:48:09.951Z,5.40
2022-08-20T13:50:47.154Z,6.00
2022-08-20T13:53:17.495Z,5.60
2022-08-20T13:55:46.701Z,6.80
2022-08-20T13:58:14.918Z,6.30
2022-08-20T14:00:43.635Z,5.80
2022-08-20T14:03:12.686Z,6.10
2022-08-20T14:05:42.239Z,6.60
2022-08-20T14:08:21.446Z,6.70
2022-08-20T14:10:51.636Z,6.30
2022-08-20T14:13:24.130Z,6.20
2022-08-20T14:15:52.942Z,5.60
2022-08-20T14:18:21.160Z,6.40
2022-08-20T14:20:49.834Z,6.10
2022-08-20T14:23:17.970Z,6.70
2022-08-20T14:25:49.686Z,6.00
2022-08-20T14:28:21.145Z,6.00
2022-08-20T14:30:53.054Z,5.70
2022-08-20T14:33:24.152Z,6.50
2022-08-20T14:35:53.101Z,5.80
2022-08-20T14:38:21.862Z,6.20
2022-08-20T14:40:50.799Z,5.90
2022-08-20T14:43:19.775Z,6.10
2022-08-20T14:45:48.267Z,6.10
2022-08-20T14:48:16.632Z,7.20
2022-08-20T14:50:45.014Z,6.10
2022-08-20T14:53:13.142Z,6.30
2022-08-20T14:55:41.339Z,6.20
2022-08-20T14:58:12.168Z,5.50
2022-08-20T15:00:40.661Z,6.10
2022-08-20T15:03:09.222Z,5.10
2022-08-20T15:05:39.457Z,4.80
2022-08-20T15:08:10.737Z,4.60
2022-08-20T15:10:39.723Z,5.40
2022-08-20T15:13:09.112Z,4.30
2022-08-20T15:15:37.686Z,4.60
2022-08-20T15:18:06.536Z,4.20
2022-08-20T15:20:36.591Z,3.70
2022-08-20T15:23:06.366Z,3.50
2022-08-20T15:25:36.865Z,4.10
2022-08-20T15:28:09.074Z,3.50
2022-08-20T15:30:40.237Z,4.30
2022-08-20T15:33:11.441Z,4.20
2022-08-20T15:35:39.740Z,4.80
2022-08-20T15:38:08.403Z,4.00
2022-08-20T15:40:37.380Z,4.20
2022-08-20T15:43:06.186Z,4.40
2022-08-20T15:45:35.545Z,5.40
2022-08-20T15:48:13.467Z,4.30
2022-08-20T15:51:04.363Z,3.70
2022-08-20T15:53:36.165Z,4.00
2022-08-20T15:56:20.111Z,4.30
2022-08-20T15:59:12.283Z,4.80
2022-08-20T16:01:58.520Z,4.20
2022-08-20T16:04:37.441Z,4.10
2022-08-20T16:07:26.285Z,4.30
2022-08-20T16:10:15.881Z,4.20
2022-08-20T16:12:49.877Z,4.60
2022-08-20T16:15:31.815Z,4.40
2022-08-20T16:18:06.713Z,4.20
2022-08-20T16:20:48.584Z,4.50
2022-08-20T16:23:20.070Z,4.10
2022-08-20T16:26:05.402Z,3.90
2022-08-20T16:28:41.927Z,4.30
2022-08-20T16:31:14.873Z,4.50
2022-08-20T16:33:54.806Z,4.40
2022-08-20T16:36:32.450Z,4.20
2022-08-20T16:39:20.176Z,4.10
2022-08-20T16:41:53.655Z,5.40
2022-08-20T16:44:39.711Z,4.30
2022-08-20T16:47:33.488Z,4.90
2022-08-20T16:50:12.102Z,3.60
2022-08-20T16:52:43.840Z,4.20
2022-08-20T16:55:13.120Z,5.20
2022-08-20T16:57:41.523Z,4.40
2022-08-20T17:00:21.242Z,4.40
2022-08-20T17:02:50.845Z,4.30
2022-08-20T17:05:20.099Z,4.40
2022-08-20T17:07:53.112Z,4.40
2022-08-20T17:13:20.712Z,4.00
2022-08-20T17:16:02.585Z,4.40
2022-08-20T17:18:35.302Z,4.40
2022-08-20T17:21:23.362Z,4.10
2022-08-20T17:23:56.814Z,4.40
2022-08-20T17:26:28.228Z,4.10
2022-08-20T17:28:59.830Z,4.50
2022-08-20T17:31:38.564Z,4.70
2022-08-20T17:34:22.711Z,4.00
2022-08-20T17:36:55.652Z,4.70
2022-08-20T17:39:26.740Z,4.60
2022-08-20T17:42:08.977Z,4.20
2022-08-20T17:47:18.796Z,5.60
2022-08-20T17:50:02.154Z,4.90
2022-08-20T17:52:39.201Z,4.90
2022-08-20T17:55:08.750Z,5.20
2022-08-20T17:57:40.399Z,4.50
2022-08-20T18:00:15.700Z,5.30
2022-08-20T18:02:44.436Z,4.80
2022-08-20T18:05:19.198Z,4.80
2022-08-20T18:08:09.446Z,4.80
2022-08-20T18:11:09.996Z,4.90
2022-08-20T18:13:57.063Z,5.60
2022-08-20T18:16:41.171Z,6.40
2022-08-20T18:19:24.606Z,4.30
2022-08-20T18:22:10.194Z,4.90
2022-08-20T18:25:06.498Z,4.90
2022-08-20T18:27:53.145Z,5.10
2022-08-20T18:30:25.176Z,4.90
2022-08-20T18:33:07.677Z,4.50
2022-08-20T18:35:44.876Z,4.60
2022-08-20T18:38:17.430Z,4.60
2022-08-20T18:40:45.648Z,4.70
2022-08-20T18:43:28.046Z,4.50
2022-08-20T18:45:56.428Z,4.80
2022-08-20T18:48:25.959Z,4.50
2022-08-20T18:50:57.479Z,4.70
2022-08-20T18:53:34.394Z,4.40
2022-08-20T18:56:07.936Z,5.20
2022-08-20T18:59:05.783Z,4.90
2022-08-20T19:01:37.316Z,4.00
2022-08-20T19:04:26.686Z,4.50
2022-08-20T19:07:00.760Z,4.40
2022-08-20T19:10:06.661Z,4.00
2022-08-20T19:12:45.542Z,4.50
2022-08-20T19:15:19.242Z,4.50
2022-08-20T19:18:07.370Z,4.50
2022-08-20T19:20:38.886Z,4.80
2022-08-20T19:23:14.644Z,4.30
2022-08-20T19:25:55.695Z,4.40
2022-08-20T19:28:41.319Z,3.90
2022-08-20T19:31:31.919Z,3.80
2022-08-20T19:34:21.599Z,4.20
2022-08-20T19:37:27.561Z,4.10
2022-08-20T19:39:52.571Z,4.80
2022-08-20T19:42:25.770Z,4.90
2022-08-20T19:44:55.802Z,4.30
2022-08-20T19:47:33.729Z,4.90
2022-08-20T19:50:36.692Z,4.80
2022-08-20T19:53:14.124Z,4.10
2022-08-20T19:55:42.476Z,4.30
2022-08-20T19:58:26.423Z,4.30
2022-08-20T20:00:56.489Z,4.80
2022-08-20T20:03:32.983Z,4.30
2022-08-20T20:06:21.563Z,4.50
2022-08-20T20:09:17.722Z,4.40
2022-08-20T20:11:58.586Z,4.60
2022-08-20T20:14:30.757Z,4.70
2022-08-20T20:17:00.394Z,4.30
2022-08-20T20:19:28.851Z,4.50
2022-08-20T20:22:19.278Z,4.40
2022-08-20T20:25:15.562Z,4.30
2022-08-20T20:27:53.398Z,4.90
2022-08-20T20:30:30.750Z,4.80
2022-08-20T20:33:03.375Z,5.40
2022-08-20T20:35:35.889Z,4.40
2022-08-20T20:38:08.139Z,4.80
2022-08-20T20:40:51.182Z,4.20
2022-08-20T20:43:33.118Z,4.40
2022-08-20T20:46:16.185Z,4.70
2022-08-20T20:49:05.097Z,4.80
2022-08-20T20:51:36.723Z,4.90
2022-08-20T20:54:21.338Z,5.40
2022-08-20T20:57:05.836Z,5.20
2022-08-20T20:59:35.726Z,4.40
2022-08-20T21:02:04.879Z,4.80
2022-08-20T21:04:33.299Z,4.80
2022-08-20T21:07:11.476Z,4.90
2022-08-20T21:09:41.932Z,5.10
2022-08-20T21:12:12.475Z,4.70
2022-08-20T21:14:41.229Z,5.10
2022-08-20T21:17:13.197Z,5.10
2022-08-20T21:22:14.506Z,4.20
2022-08-20T21:24:42.690Z,4.40
2022-08-20T21:27:12.391Z,3.90
2022-08-20T21:29:41.594Z,4.40
2022-08-20T21:32:12.410Z,4.40
2022-08-20T21:34:41.451Z,4.10
2022-08-20T21:37:10.274Z,4.40
2022-08-20T21:39:40.109Z,4.90
2022-08-20T21:42:21.137Z,4.70
2022-08-20T21:45:00.106Z,5.30
2022-08-20T21:47:28.365Z,4.50
2022-08-20T21:49:57.205Z,4.00
2022-08-20T21:52:25.393Z,5.20
2022-08-20T21:54:54.135Z,5.30
2022-08-20T21:57:28.411Z,4.40
2022-08-20T21:59:58.214Z,4.40
2022-08-20T22:02:27.451Z,4.40
2022-08-20T22:04:55.693Z,4.30
2022-08-20T22:07:24.010Z,4.50
2022-08-20T22:09:52.310Z,4.30
2022-08-20T22:12:26.995Z,4.10
2022-08-20T22:14:55.274Z,4.60
2022-08-20T22:17:23.583Z,4.40
2022-08-20T22:19:51.772Z,4.40
2022-08-20T22:22:21.553Z,4.50
2022-08-20T22:24:49.957Z,4.70
2022-08-20T22:27:18.229Z,4.30
2022-08-20T22:29:46.419Z,4.20
2022-08-20T22:32:14.877Z,4.30
2022-08-20T22:34:43.160Z,4.30
2022-08-20T22:37:13.710Z,4.80
2022-08-20T22:39:41.972Z,4.80
2022-08-20T22:42:10.630Z,4.30
2022-08-20T22:44:38.926Z,4.40
2022-08-20T22:47:09.170Z,4.70
2022-08-20T22:49:40.003Z,4.50
2022-08-20T22:52:09.278Z,5.00
2022-08-20T22:54:38.467Z,4.60
2022-08-20T22:57:13.758Z,4.40
2022-08-20T22:59:46.398Z,5.10
2022-08-20T23:02:22.988Z,3.70
2022-08-20T23:04:51.711Z,4.40
2022-08-20T23:07:20.122Z,4.80
2022-08-20T23:09:48.988Z,5.60
2022-08-20T23:12:17.335Z,5.50
2022-08-20T23:14:45.542Z,4.80
2022-08-20T23:17:19.192Z,4.50
2022-08-20T23:19:50.075Z,5.40
2022-08-20T23:22:19.468Z,4.70
2022-08-20T23:24:47.717Z,5.20
2022-08-20T23:27:18.835Z,4.80
2022-08-20T23:29:47.751Z,4.20
2022-08-20T23:32:17.374Z,4.20
2022-08-20T23:34:45.682Z,4.60
2022-08-20T23:37:19.104Z,3.90
2022-08-20T23:39:47.361Z,4.30
2022-08-20T23:42:17.025Z,4.30
2022-08-20T23:44:45.675Z,4.80
2022-08-20T23:47:21.570Z,4.10
2022-08-20T23:49:50.311Z,4.30
2022-08-20T23:52:18.823Z,4.20
2022-08-20T23:54:47.016Z,4.50
2022-08-20T23:57:16.487Z,4.10
2022-08-20T23:59:52.935Z,5.00
